Airfield :
LOGIN :

Register | Disclaimer

   EN    FR    IT 

 










Legend :    VFR   Marginal VFR   IFR   Intensive IFR   Very Intensive IFR
Visi :
Ceiling :
>= 8 km
>= 3000ft
5 to 8 km
1000 to 3000 ft
1500m to 5 km
500 to 1000 ft
800 to 1500m
200 to 500 ft
< 800m
< 200 ft
Symbols :   Thunderstorms  Fog  Heavy snow  Heavy precipitations  Wind > 20 kt
SIGMETs :     Misc.  Thunderstorms  Icing  Turbulence  Mountain Waves  Volcanic Ashes







- Airport Elevation : 290 ft
- IATA code : ACI
- Download approach charts


EGJA - Alderney

CURRENT METAR :
  • 171720Z 07011KT 9999 FEW020 14/// Q1015

EXPIRED METARs :
  • 171650Z 04010KT 9999 FEW020 14/// Q1015
  • 171620Z 05009KT 9999 FEW020 14/// Q1016
  • 171550Z 05010KT 9999 FEW020 14/// Q1016
  • 171520Z 04009KT 9999 FEW020 13/// Q1016

TAF TAF EGJA
Valid from the 17 at 15:00 until the 17 at 19:00 UTC


171400Z 1715/1719 05006KT 9999 SCT040
BECMG 1715/1718 08016KT
No reported NOTAMs for that airfield.



MET'MAP, your aeronautical weather chart ! - Copyright ORBIFLY December 2007 - Disclaimer

ORBIFLY MET'MAP TEAM :

Programming & Development : Alexandra Zaïnal
Concept & Development : Baudouin d'Aumeries
Co-Development & Prog : Marc-Olivier Méhu
Technical & hardware support : Manuel Goepfert

Contact : metmap@orbifly.com




SOURCES & CREDITS :

   NOAA